Time;durP1;ratioP1;P1;durP2;ratioP2;P2;SDS_P1;SDS_P2;PMS_P1;PMS_P2;Temp;Humidity;BMP_temperature;BMP_pressure;BME280_temperature;BME280_humidity;BME280_pressure;Samples;Min_cycle;Max_cycle;Signal;HPM_P1;HPM_P2
2022/07/10 00:00:02;;;;;;;1.23;1.23;;;;;17.50;98975.00;;;;5116982;28;20194;-79
2022/07/10 00:02:28;;;;;;;0.73;0.73;;;;;17.60;98969.00;;;;5117024;28;20565;-79
2022/07/10 00:04:55;;;;;;;0.60;0.60;;;;;17.60;98967.00;;;;5117017;28;20197;-79
2022/07/10 00:07:24;;;;;;;0.60;0.60;;;;;17.70;98973.00;;;;5117221;28;20194;-80
2022/07/10 00:09:51;;;;;;;0.53;0.53;;;;;17.50;98974.00;;;;5116887;28;20803;-79
2022/07/10 00:12:19;;;;;;;0.60;0.60;;;;;17.50;98970.00;;;;5116748;28;20226;-79
2022/07/10 00:14:46;;;;;;;2.07;0.93;;;;;17.40;98966.00;;;;5117117;28;20186;-79
2022/07/10 00:17:12;;;;;;;0.80;0.80;;;;;17.40;98958.00;;;;5116743;28;20218;-80
2022/07/10 00:19:41;;;;;;;0.73;0.73;;;;;17.60;98957.00;;;;5116782;28;20256;-79
2022/07/10 00:22:08;;;;;;;0.87;0.87;;;;;17.50;98959.00;;;;5116685;28;20581;-79
2022/07/10 00:24:35;;;;;;;0.87;0.87;;;;;17.50;98959.00;;;;5116592;28;20660;-79
2022/07/10 00:27:02;;;;;;;0.60;0.60;;;;;17.50;98956.00;;;;5116656;28;20190;-79
2022/07/10 00:29:30;;;;;;;0.80;0.80;;;;;17.50;98955.00;;;;5116436;28;20224;-78
2022/07/10 00:31:59;;;;;;;1.67;1.57;;;;;17.50;98958.00;;;;5116869;28;20232;-76
2022/07/10 00:34:26;;;;;;;0.87;0.87;;;;;17.50;98960.00;;;;5117392;28;20256;-79
2022/07/10 00:36:55;;;;;;;0.50;0.50;;;;;17.60;98961.00;;;;5117457;28;20710;-79
2022/07/10 00:39:22;;;;;;;0.60;0.60;;;;;17.60;98961.00;;;;5117285;28;20190;-78
2022/07/10 00:41:48;;;;;;;0.90;0.90;;;;;17.70;98962.00;;;;5116741;28;20266;-79
2022/07/10 00:44:15;;;;;;;0.87;0.87;;;;;17.60;98960.00;;;;5116213;28;20256;-78
2022/07/10 00:46:43;;;;;;;0.97;0.97;;;;;17.60;98952.00;;;;5116346;28;20512;-79
2022/07/10 00:49:10;;;;;;;0.80;0.80;;;;;17.50;98955.00;;;;5116171;28;20648;-79
2022/07/10 00:51:39;;;;;;;0.93;0.93;;;;;17.50;98956.00;;;;5116028;28;20225;-76
2022/07/10 00:54:07;;;;;;;0.60;0.60;;;;;17.50;98957.00;;;;5114874;28;20582;-78
2022/07/10 00:56:34;;;;;;;0.70;0.70;;;;;17.40;98947.00;;;;5116088;28;20623;-79
2022/07/10 00:59:01;;;;;;;0.70;0.70;;;;;17.50;98955.00;;;;5116084;28;20270;-79
2022/07/10 01:01:28;;;;;;;0.60;0.60;;;;;17.50;98960.00;;;;5116235;28;20197;-79
2022/07/10 01:03:55;;;;;;;1.23;1.23;;;;;17.50;98956.00;;;;5116047;28;20197;-79
2022/07/10 01:06:22;;;;;;;1.63;1.13;;;;;17.40;98948.00;;;;5115996;28;20208;-79
2022/07/10 01:08:49;;;;;;;0.73;0.73;;;;;17.30;98947.00;;;;5115868;28;20286;-79
2022/07/10 01:11:16;;;;;;;0.73;0.73;;;;;17.40;98953.00;;;;5115951;28;20244;-79
2022/07/10 01:13:45;;;;;;;0.77;0.77;;;;;17.30;98954.00;;;;5115872;28;20237;-79
2022/07/10 01:16:13;;;;;;;0.80;0.80;;;;;17.40;98947.00;;;;5116054;28;20190;-81
2022/07/10 01:18:40;;;;;;;0.80;0.80;;;;;17.40;98952.00;;;;5097969;28;20566;-78
2022/07/10 01:21:22;;;;;;;0.97;0.97;;;;;17.10;98942.00;;;;5116024;28;20250;-79
2022/07/10 01:23:49;;;;;;;0.40;0.40;;;;;17.10;98947.00;;;;5115855;28;20206;-78
2022/07/10 01:26:16;;;;;;;13.03;1.00;;;;;17.10;98946.00;;;;5115714;28;20190;-79
2022/07/10 01:28:43;;;;;;;1.10;1.03;;;;;17.00;98943.00;;;;5115757;28;20190;-78
2022/07/10 01:31:10;;;;;;;0.73;0.73;;;;;16.80;98942.00;;;;5116036;28;20214;-80
2022/07/10 01:33:36;;;;;;;0.87;0.87;;;;;16.80;98946.00;;;;5115590;28;20217;-79
2022/07/10 01:36:03;;;;;;;1.03;0.70;;;;;16.80;98947.00;;;;5097493;28;20234;-78
2022/07/10 01:38:31;;;;;;;0.80;0.80;;;;;16.90;98947.00;;;;5115650;28;20185;-79
2022/07/10 01:40:58;;;;;;;0.73;0.73;;;;;16.80;98935.00;;;;5115352;28;20217;-78
2022/07/10 01:43:27;;;;;;;1.30;1.30;;;;;16.80;98929.00;;;;5115461;28;20221;-78
2022/07/10 01:45:54;;;;;;;0.80;0.80;;;;;16.80;98938.00;;;;5115719;28;20190;-79
2022/07/10 01:48:23;;;;;;;0.73;0.73;;;;;16.90;98938.00;;;;5115351;28;20279;-79
2022/07/10 01:50:50;;;;;;;1.07;1.07;;;;;16.90;98944.00;;;;5115246;28;20200;-79
2022/07/10 01:53:16;;;;;;;1.47;1.37;;;;;17.00;98945.00;;;;5115091;28;20221;-79
2022/07/10 01:55:44;;;;;;;0.83;0.83;;;;;16.90;98949.00;;;;5115264;28;20198;-80
2022/07/10 01:58:13;;;;;;;0.90;0.90;;;;;16.90;98943.00;;;;5115091;28;20217;-78
2022/07/10 02:00:40;;;;;;;1.43;1.33;;;;;16.80;98947.00;;;;5115148;28;20190;-78
2022/07/10 02:05:54;;;;;;;2.10;1.73;;;;;16.80;98952.00;;;;5114944;28;20536;-77
2022/07/10 02:08:21;;;;;;;1.07;1.07;;;;;16.90;98947.00;;;;5115016;28;20202;-79
2022/07/10 02:10:49;;;;;;;0.97;0.87;;;;;16.80;98939.00;;;;5114967;28;20228;-79
2022/07/10 02:13:19;;;;;;;0.97;0.97;;;;;16.80;98941.00;;;;5097070;28;20222;-79
2022/07/10 02:15:47;;;;;;;0.90;0.90;;;;;16.80;98941.00;;;;5114844;28;20358;-78
2022/07/10 02:18:14;;;;;;;1.03;1.03;;;;;16.80;98951.00;;;;5115000;28;20659;-78
2022/07/10 02:20:40;;;;;;;1.10;1.10;;;;;16.90;98951.00;;;;5114714;28;20214;-78
2022/07/10 02:23:07;;;;;;;1.33;1.33;;;;;16.90;98943.00;;;;5096788;28;20202;-78
2022/07/10 02:25:34;;;;;;;1.83;1.73;;;;;17.00;98954.00;;;;5114659;28;20216;-77
2022/07/10 02:28:02;;;;;;;1.47;1.47;;;;;17.00;98949.00;;;;5114601;28;20209;-79
2022/07/10 02:30:29;;;;;;;0.90;0.90;;;;;17.00;98962.00;;;;5114730;28;20566;-78
2022/07/10 02:32:56;;;;;;;1.20;1.20;;;;;16.90;98961.00;;;;5096673;28;20245;-79
2022/07/10 02:35:22;;;;;;;1.30;1.20;;;;;17.00;98973.00;;;;5114851;28;20205;-79
2022/07/10 02:37:49;;;;;;;1.77;1.67;;;;;17.00;98966.00;;;;5114473;28;20665;-79
2022/07/10 02:40:16;;;;;;;1.60;1.50;;;;;16.90;98962.00;;;;5114491;28;20198;-79
2022/07/10 02:42:43;;;;;;;1.17;1.13;;;;;16.90;98962.00;;;;5114458;28;20677;-79
2022/07/10 02:45:11;;;;;;;0.60;0.60;;;;;16.90;98959.00;;;;5096911;28;20205;-79
2022/07/10 02:47:38;;;;;;;1.03;0.93;;;;;16.90;98962.00;;;;5114409;28;20205;-79
2022/07/10 02:50:05;;;;;;;1.17;1.17;;;;;16.80;98962.00;;;;5114484;28;20523;-79
2022/07/10 02:52:32;;;;;;;2.33;2.13;;;;;16.90;98959.00;;;;5114425;28;20289;-79
2022/07/10 02:54:59;;;;;;;1.70;1.60;;;;;16.90;98968.00;;;;5114467;28;20289;-80
2022/07/10 02:57:26;;;;;;;0.93;0.93;;;;;16.80;98966.00;;;;5114582;28;20254;-79
2022/07/10 02:59:53;;;;;;;1.90;1.80;;;;;16.90;98960.00;;;;5114381;28;20197;-78
2022/07/10 03:02:20;;;;;;;1.10;1.10;;;;;16.80;98965.00;;;;5114548;28;20189;-80
2022/07/10 03:04:47;;;;;;;2.27;2.07;;;;;16.90;98957.00;;;;5114409;28;20198;-79
2022/07/10 03:07:14;;;;;;;1.97;1.80;;;;;16.90;98956.00;;;;5114587;28;20565;-79
2022/07/10 03:09:41;;;;;;;1.27;1.27;;;;;16.90;98963.00;;;;5114501;28;20192;-80
2022/07/10 03:12:08;;;;;;;1.20;1.20;;;;;16.90;98964.00;;;;5114116;28;20355;-79
2022/07/10 03:14:35;;;;;;;0.80;0.80;;;;;16.70;98965.00;;;;5113923;28;20225;-78
2022/07/10 03:17:01;;;;;;;1.00;1.00;;;;;16.80;98963.00;;;;5114377;28;20683;-78
2022/07/10 03:19:29;;;;;;;0.97;0.97;;;;;16.70;98964.00;;;;5117606;28;20232;-77
2022/07/10 03:21:56;;;;;;;0.90;0.90;;;;;16.80;98971.00;;;;5117640;28;20194;-77
2022/07/10 03:24:23;;;;;;;1.03;1.03;;;;;16.70;98955.00;;;;5117689;28;20198;-77
2022/07/10 03:26:49;;;;;;;1.30;1.20;;;;;16.70;98963.00;;;;5117541;28;20193;-77
2022/07/10 03:29:16;;;;;;;1.30;1.03;;;;;16.60;98968.00;;;;5117470;28;20293;-76
2022/07/10 03:31:43;;;;;;;1.47;1.37;;;;;16.70;98959.00;;;;5117631;28;20186;-78
2022/07/10 03:34:10;;;;;;;1.63;1.53;;;;;16.60;98967.00;;;;5117482;28;20229;-78
2022/07/10 03:36:37;;;;;;;1.73;1.63;;;;;16.50;98974.00;;;;5101539;28;20194;-78
2022/07/10 03:39:04;;;;;;;1.63;1.53;;;;;16.70;98968.00;;;;5119876;28;20194;-78
2022/07/10 03:41:31;;;;;;;1.13;1.13;;;;;16.50;98971.00;;;;5120419;28;20197;-78
2022/07/10 03:44:00;;;;;;;1.13;1.13;;;;;16.60;98977.00;;;;5124702;28;20240;-77
2022/07/10 03:46:27;;;;;;;1.27;1.27;;;;;16.50;98978.00;;;;5117369;28;20198;-77
2022/07/10 03:48:56;;;;;;;1.23;1.23;;;;;16.40;98964.00;;;;5117318;28;20244;-77
2022/07/10 03:51:23;;;;;;;1.53;1.43;;;;;16.40;98966.00;;;;5117253;28;20229;-78
2022/07/10 03:53:51;;;;;;;1.30;1.30;;;;;16.50;98965.00;;;;5117179;28;20218;-78
2022/07/10 03:58:59;;;;;;;0.93;0.93;;;;;16.50;98968.00;;;;5116188;28;20249;-78
2022/07/10 04:01:26;;;;;;;1.73;1.63;;;;;16.60;98974.00;;;;5117140;28;20198;-78
2022/07/10 04:03:55;;;;;;;1.10;1.10;;;;;16.60;98971.00;;;;5117487;28;20202;-78
2022/07/10 04:06:21;;;;;;;0.97;0.97;;;;;16.70;98978.00;;;;5116967;28;20609;-77
2022/07/10 04:08:51;;;;;;;2.03;1.43;;;;;16.60;98979.00;;;;5098964;28;20669;-78
2022/07/10 04:11:18;;;;;;;1.27;1.27;;;;;16.60;98973.00;;;;5116974;28;20186;-77
2022/07/10 04:13:45;;;;;;;0.90;0.90;;;;;16.80;98964.00;;;;5117025;28;20248;-76
2022/07/10 04:16:12;;;;;;;0.80;0.80;;;;;16.60;98976.00;;;;5116876;28;20205;-78
2022/07/10 04:18:39;;;;;;;2.23;1.50;;;;;16.50;98974.00;;;;5116790;28;20214;-77
2022/07/10 04:21:07;;;;;;;0.90;0.90;;;;;16.50;98973.00;;;;5117003;28;20255;-78
2022/07/10 04:23:34;;;;;;;1.03;1.03;;;;;16.60;98974.00;;;;5116870;28;20204;-78
2022/07/10 04:26:01;;;;;;;1.00;1.00;;;;;16.60;98976.00;;;;5116746;28;20209;-78
2022/07/10 04:28:28;;;;;;;0.70;0.70;;;;;16.50;98976.00;;;;5116816;28;20505;-76
2022/07/10 04:30:55;;;;;;;1.17;1.17;;;;;16.50;98966.00;;;;5116633;28;20233;-78
2022/07/10 04:33:22;;;;;;;0.83;0.83;;;;;16.40;98981.00;;;;5098676;28;20232;-80
2022/07/10 04:35:48;;;;;;;0.90;0.90;;;;;16.50;98975.00;;;;5116300;28;20218;-78
2022/07/10 04:38:15;;;;;;;0.50;0.50;;;;;16.60;98973.00;;;;5116414;28;20213;-78
2022/07/10 04:40:42;;;;;;;1.57;1.47;;;;;16.70;98970.00;;;;5116488;28;20194;-78
2022/07/10 04:43:10;;;;;;;0.93;0.93;;;;;16.80;98970.00;;;;5116471;28;20267;-78
2022/07/10 04:45:39;;;;;;;0.67;0.67;;;;;16.80;98973.00;;;;5116450;28;20230;-78
2022/07/10 04:48:06;;;;;;;0.83;0.83;;;;;16.60;98976.00;;;;5116318;28;20190;-77
2022/07/10 04:50:34;;;;;;;4.80;1.77;;;;;16.50;98981.00;;;;5116360;28;20190;-77
2022/07/10 04:53:00;;;;;;;1.10;1.10;;;;;16.60;98984.00;;;;5116045;28;20222;-78
2022/07/10 04:55:27;;;;;;;0.90;0.90;;;;;16.60;98985.00;;;;5116164;28;20542;-78
2022/07/10 04:57:56;;;;;;;1.27;1.27;;;;;16.60;98983.00;;;;5115968;28;20190;-78
2022/07/10 05:00:24;;;;;;;0.83;0.83;;;;;16.80;98988.00;;;;5116110;28;20190;-77
2022/07/10 05:02:51;;;;;;;0.50;0.50;;;;;16.80;98984.00;;;;5116129;28;20195;-77
2022/07/10 05:05:17;;;;;;;1.00;1.00;;;;;16.70;98978.00;;;;5116114;28;20194;-77
2022/07/10 05:07:44;;;;;;;0.90;0.90;;;;;16.80;98982.00;;;;5115978;28;20197;-78
2022/07/10 05:10:11;;;;;;;0.80;0.80;;;;;16.80;98983.00;;;;5116182;28;20613;-77
2022/07/10 05:12:38;;;;;;;0.70;0.70;;;;;16.80;98990.00;;;;5115857;28;20212;-78
2022/07/10 05:15:06;;;;;;;0.77;0.77;;;;;16.90;98984.00;;;;5115762;28;20229;-78
2022/07/10 05:17:36;;;;;;;0.47;0.47;;;;;17.00;98985.00;;;;5115887;28;20198;-77
2022/07/10 05:20:03;;;;;;;0.90;0.90;;;;;17.10;98985.00;;;;5115735;28;20285;-77
2022/07/10 05:22:33;;;;;;;0.80;0.80;;;;;17.00;98990.00;;;;5115859;28;20836;-77
2022/07/10 05:24:59;;;;;;;0.73;0.73;;;;;17.00;98988.00;;;;5115665;28;20194;-78
2022/07/10 05:27:26;;;;;;;0.53;0.53;;;;;16.90;98982.00;;;;5115738;28;20198;-77
2022/07/10 05:29:53;;;;;;;0.60;0.60;;;;;16.90;98986.00;;;;5115637;28;20194;-78
2022/07/10 05:32:21;;;;;;;0.80;0.80;;;;;16.90;98988.00;;;;5115475;28;20305;-77
2022/07/10 05:34:48;;;;;;;0.83;0.83;;;;;16.80;98991.00;;;;5115402;28;20249;-77
2022/07/10 05:37:15;;;;;;;0.80;0.80;;;;;16.70;98991.00;;;;5115523;28;20669;-78
2022/07/10 05:39:42;;;;;;;0.60;0.60;;;;;16.80;98991.00;;;;5114851;28;20192;-77
2022/07/10 05:42:09;;;;;;;0.83;0.83;;;;;16.90;99000.00;;;;5115341;28;20194;-77
2022/07/10 05:44:35;;;;;;;0.60;0.60;;;;;16.80;98998.00;;;;5115411;28;20225;-77
2022/07/10 05:47:03;;;;;;;0.67;0.67;;;;;16.80;99000.00;;;;5115601;28;20271;-77
2022/07/10 05:49:31;;;;;;;0.60;0.60;;;;;16.90;99005.00;;;;5115414;28;20221;-77
2022/07/10 05:51:59;;;;;;;0.70;0.70;;;;;17.00;99010.00;;;;5115246;28;20281;-77
2022/07/10 05:54:26;;;;;;;0.57;0.57;;;;;17.00;99020.00;;;;5115232;28;20226;-78
2022/07/10 05:56:53;;;;;;;0.50;0.50;;;;;17.00;99016.00;;;;5115328;28;20208;-78
2022/07/10 05:59:22;;;;;;;1.00;1.00;;;;;17.10;99021.00;;;;5115088;28;20705;-77
2022/07/10 06:01:49;;;;;;;0.93;0.93;;;;;17.20;99019.00;;;;5115242;28;20276;-78
2022/07/10 06:04:16;;;;;;;1.27;1.27;;;;;17.30;99028.00;;;;5115159;28;20288;-78
2022/07/10 06:06:43;;;;;;;0.60;0.60;;;;;17.40;99030.00;;;;5115057;28;20214;-77
2022/07/10 06:09:11;;;;;;;0.70;0.70;;;;;17.40;99020.00;;;;5115027;28;20271;-77
2022/07/10 06:11:37;;;;;;;1.00;1.00;;;;;17.30;99024.00;;;;5114795;28;20240;-77
2022/07/10 06:14:04;;;;;;;0.50;0.50;;;;;17.50;99029.00;;;;5115256;28;20250;-77
2022/07/10 06:16:31;;;;;;;0.80;0.80;;;;;17.50;99022.00;;;;5115706;28;20531;-78
2022/07/10 06:18:58;;;;;;;0.70;0.70;;;;;17.50;99021.00;;;;5115690;28;20642;-79
2022/07/10 06:21:25;;;;;;;0.50;0.50;;;;;17.60;99025.00;;;;5116179;28;20215;-77
2022/07/10 06:23:52;;;;;;;0.87;0.87;;;;;17.60;99032.00;;;;5115799;28;20233;-77
2022/07/10 06:26:19;;;;;;;0.80;0.80;;;;;17.60;99030.00;;;;5116381;28;20194;-80
2022/07/10 06:28:46;;;;;;;1.60;1.17;;;;;17.80;99032.00;;;;5117671;28;20294;-78
2022/07/10 06:31:15;;;;;;;0.83;0.83;;;;;17.80;99035.00;;;;5115796;28;20280;-78
2022/07/10 06:33:42;;;;;;;0.60;0.60;;;;;17.70;99032.00;;;;5122516;28;20250;-77
2022/07/10 06:36:09;;;;;;;0.50;0.50;;;;;17.80;99040.00;;;;5124188;28;20277;-76
2022/07/10 06:38:35;;;;;;;0.70;0.70;;;;;17.80;99041.00;;;;5122354;28;20237;-82
2022/07/10 06:41:02;;;;;;;0.70;0.70;;;;;17.70;99053.00;;;;5121894;28;20206;-79
2022/07/10 06:43:30;;;;;;;0.60;0.60;;;;;17.60;99048.00;;;;5121579;28;20198;-79
2022/07/10 06:45:57;;;;;;;0.50;0.50;;;;;17.60;99047.00;;;;5103481;28;20625;-77
2022/07/10 06:48:24;;;;;;;0.60;0.60;;;;;17.70;99040.00;;;;5120417;28;20209;-76
2022/07/10 06:50:51;;;;;;;0.50;0.50;;;;;17.70;99058.00;;;;5101809;28;20212;-80
2022/07/10 06:53:26;;;;;;;1.30;1.30;;;;;17.80;99058.00;;;;5100639;28;20633;-80
2022/07/10 06:55:56;;;;;;;0.60;0.60;;;;;17.80;99043.00;;;;5115083;28;20213;-77
2022/07/10 06:58:22;;;;;;;0.70;0.70;;;;;17.80;99042.00;;;;5114553;28;20194;-76
2022/07/10 07:00:50;;;;;;;0.50;0.50;;;;;18.00;99050.00;;;;5114470;28;20213;-79
2022/07/10 07:03:17;;;;;;;3.73;1.53;;;;;18.00;99050.00;;;;5114582;28;20258;-79
2022/07/10 07:05:44;;;;;;;0.97;0.73;;;;;18.10;99053.00;;;;5114401;28;20595;-79
2022/07/10 07:08:13;;;;;;;0.70;0.70;;;;;18.00;99050.00;;;;5114798;28;20265;-80
2022/07/10 07:10:44;;;;;;;0.60;0.60;;;;;17.90;99054.00;;;;5096472;28;20825;-80
2022/07/10 07:13:13;;;;;;;0.60;0.60;;;;;17.90;99054.00;;;;5096435;28;20197;-81
2022/07/10 07:15:46;;;;;;;2.17;1.77;;;;;17.80;99060.00;;;;5114577;28;20217;-81
2022/07/10 07:18:16;;;;;;;1.00;1.00;;;;;17.90;99058.00;;;;5114637;28;20194;-80
2022/07/10 07:23:30;;;;;;;0.90;0.90;;;;;17.90;99066.00;;;;5114148;28;20202;-80
2022/07/10 07:25:57;;;;;;;0.50;0.50;;;;;17.70;99068.00;;;;5113996;28;20214;-81
2022/07/10 07:28:24;;;;;;;0.60;0.60;;;;;17.70;99071.00;;;;5096422;28;20205;-81
2022/07/10 07:30:51;;;;;;;0.60;0.60;;;;;17.90;99079.00;;;;5114684;28;20218;-80
2022/07/10 07:33:19;;;;;;;0.60;0.60;;;;;17.90;99071.00;;;;5114343;28;20214;-79
2022/07/10 07:35:45;;;;;;;0.70;0.70;;;;;17.90;99074.00;;;;5114466;28;20194;-80
2022/07/10 07:38:12;;;;;;;0.57;0.57;;;;;17.90;99079.00;;;;5096659;28;20194;-79
2022/07/10 07:40:39;;;;;;;0.47;0.47;;;;;17.90;99066.00;;;;5114413;28;20229;-79
2022/07/10 07:43:06;;;;;;;0.60;0.60;;;;;18.10;99075.00;;;;5114298;28;20255;-79
2022/07/10 07:45:33;;;;;;;0.40;0.40;;;;;18.30;99063.00;;;;5114532;28;20191;-80
2022/07/10 07:48:01;;;;;;;0.63;0.63;;;;;18.30;99059.00;;;;5114218;28;20190;-79
2022/07/10 07:50:31;;;;;;;0.50;0.50;;;;;18.20;99072.00;;;;5114335;28;20210;-79
2022/07/10 07:53:01;;;;;;;0.50;0.50;;;;;18.40;99071.00;;;;5096025;28;20218;-77
2022/07/10 07:55:29;;;;;;;0.80;0.80;;;;;18.50;99065.00;;;;5113842;28;20190;-78
2022/07/10 07:57:58;;;;;;;0.60;0.60;;;;;18.40;99056.00;;;;5095509;28;20309;-78
2022/07/10 08:00:26;;;;;;;0.50;0.50;;;;;18.20;99060.00;;;;5113687;28;20288;-79
2022/07/10 08:02:54;;;;;;;0.50;0.50;;;;;18.40;99063.00;;;;5114040;28;20314;-78
2022/07/10 08:05:23;;;;;;;0.60;0.60;;;;;18.50;99065.00;;;;5117272;28;20220;-77
2022/07/10 08:07:52;;;;;;;0.50;0.50;;;;;18.60;99058.00;;;;5116986;28;20231;-76
2022/07/10 08:10:22;;;;;;;0.50;0.50;;;;;18.60;99054.00;;;;5116993;28;20198;-75
2022/07/10 08:12:49;;;;;;;0.60;0.60;;;;;18.80;99056.00;;;;5116566;28;20279;-75
2022/07/10 08:15:17;;;;;;;0.50;0.50;;;;;19.00;99050.00;;;;5116604;28;20649;-76
2022/07/10 08:17:47;;;;;;;0.60;0.60;;;;;19.00;99056.00;;;;5116835;28;20190;-76
2022/07/10 08:20:14;;;;;;;0.83;0.83;;;;;19.10;99056.00;;;;5098766;28;20578;-76
2022/07/10 08:22:41;;;;;;;0.50;0.50;;;;;19.30;99056.00;;;;5098983;28;20289;-75
2022/07/10 08:25:09;;;;;;;0.40;0.40;;;;;19.10;99042.00;;;;5116629;28;20249;-76
2022/07/10 08:27:39;;;;;;;0.53;0.53;;;;;19.10;99040.00;;;;5116753;28;20206;-76
2022/07/10 08:30:08;;;;;;;0.77;0.77;;;;;19.00;99033.00;;;;5116633;28;20230;-75
2022/07/10 08:32:35;;;;;;;0.77;0.77;;;;;19.10;99032.00;;;;5116761;28;20201;-74
2022/07/10 08:35:02;;;;;;;0.50;0.50;;;;;19.40;99032.00;;;;5116445;28;20210;-75
2022/07/10 08:37:29;;;;;;;0.70;0.70;;;;;19.50;99041.00;;;;5116727;28;20502;-76
2022/07/10 08:39:56;;;;;;;0.60;0.60;;;;;19.30;99036.00;;;;5116731;28;20517;-73
2022/07/10 08:42:25;;;;;;;0.80;0.80;;;;;19.40;99042.00;;;;5116637;28;20216;-75
2022/07/10 08:44:54;;;;;;;0.57;0.57;;;;;19.30;99037.00;;;;5098459;28;20603;-76
2022/07/10 08:47:25;;;;;;;0.60;0.60;;;;;19.50;99034.00;;;;5116537;28;20731;-74
2022/07/10 08:49:52;;;;;;;1.03;1.03;;;;;19.50;99030.00;;;;5116339;28;20244;-75
2022/07/10 08:52:27;;;;;;;0.70;0.70;;;;;19.80;99028.00;;;;5116163;28;20310;-76
2022/07/10 08:54:55;;;;;;;0.53;0.53;;;;;19.80;99031.00;;;;5116041;28;20217;-75
2022/07/10 08:57:24;;;;;;;0.70;0.70;;;;;20.00;99035.00;;;;5116118;28;20547;-75
2022/07/10 08:59:51;;;;;;;0.97;0.73;;;;;19.90;99039.00;;;;5116135;28;20528;-74
2022/07/10 09:02:18;;;;;;;0.50;0.50;;;;;19.70;99049.00;;;;5116140;28;20219;-74
2022/07/10 09:04:48;;;;;;;0.40;0.40;;;;;19.80;99041.00;;;;5116004;28;20202;-75
2022/07/10 09:07:17;;;;;;;1.17;1.07;;;;;19.80;99034.00;;;;5115922;28;20664;-75
2022/07/10 09:09:54;;;;;;;0.60;0.60;;;;;20.10;99030.00;;;;5097843;28;20222;-75
2022/07/10 09:12:22;;;;;;;1.23;1.17;;;;;20.20;99035.00;;;;5115913;28;20182;-75
2022/07/10 09:14:52;;;;;;;0.50;0.50;;;;;20.30;99036.00;;;;5096769;28;20252;-75
2022/07/10 09:17:20;;;;;;;0.50;0.50;;;;;20.60;99040.00;;;;5115798;28;20525;-75
2022/07/10 09:19:49;;;;;;;0.50;0.50;;;;;20.60;99058.00;;;;5115643;28;20295;-75
2022/07/10 09:22:16;;;;;;;1.00;1.00;;;;;20.60;99049.00;;;;5115805;28;20255;-76
2022/07/10 09:24:44;;;;;;;0.40;0.40;;;;;20.30;99052.00;;;;5115851;28;20206;-75
2022/07/10 09:27:12;;;;;;;0.60;0.60;;;;;20.50;99048.00;;;;5115665;28;20190;-74
2022/07/10 09:29:47;;;;;;;0.40;0.40;;;;;20.60;99050.00;;;;5098006;28;20706;-75
2022/07/10 09:32:16;;;;;;;0.40;0.40;;;;;20.70;99052.00;;;;5097548;28;20631;-75
2022/07/10 09:34:45;;;;;;;0.70;0.70;;;;;20.50;99056.00;;;;5115918;28;20562;-75
2022/07/10 09:37:21;;;;;;;0.60;0.60;;;;;20.60;99060.00;;;;5115815;28;20218;-74
2022/07/10 09:39:57;;;;;;;0.40;0.40;;;;;20.60;99038.00;;;;5115062;28;20208;-75
2022/07/10 09:42:28;;;;;;;0.50;0.50;;;;;20.60;99053.00;;;;5115373;28;20264;-75
2022/07/10 09:45:15;;;;;;;0.50;0.50;;;;;20.90;99050.00;;;;5115492;28;20186;-74
2022/07/10 09:47:44;;;;;;;0.50;0.50;;;;;20.90;99054.00;;;;5115313;28;20201;-74
2022/07/10 09:50:24;;;;;;;0.50;0.50;;;;;21.10;99063.00;;;;5101019;28;20205;-76
2022/07/10 09:52:53;;;;;;;0.40;0.40;;;;;21.00;99048.00;;;;5118580;28;20186;-75
2022/07/10 09:55:21;;;;;;;0.40;0.40;;;;;21.10;99064.00;;;;5115463;28;20218;-75
2022/07/10 09:57:55;;;;;;;0.40;0.40;;;;;21.20;99062.00;;;;5115178;28;20626;-75
2022/07/10 10:00:25;;;;;;;0.40;0.40;;;;;21.30;99053.00;;;;5115220;28;20266;-75
2022/07/10 10:02:55;;;;;;;0.50;0.50;;;;;21.30;99057.00;;;;5115210;28;20203;-76
2022/07/10 10:05:26;;;;;;;0.70;0.70;;;;;21.20;99060.00;;;;5115251;28;20246;-76
2022/07/10 10:07:54;;;;;;;0.50;0.50;;;;;20.90;99051.00;;;;5115212;28;20289;-75
2022/07/10 10:10:21;;;;;;;0.60;0.60;;;;;21.00;99053.00;;;;5114925;28;20239;-76
2022/07/10 10:12:55;;;;;;;4.63;1.10;;;;;20.90;99061.00;;;;5115061;28;20212;-75
2022/07/10 10:15:22;;;;;;;0.47;0.47;;;;;20.90;99055.00;;;;5096918;28;20283;-75
2022/07/10 10:17:52;;;;;;;0.40;0.40;;;;;20.40;99044.00;;;;5114861;28;20193;-76
2022/07/10 10:20:37;;;;;;;0.40;0.40;;;;;20.80;99038.00;;;;5114867;28;20229;-76
2022/07/10 10:23:05;;;;;;;0.50;0.50;;;;;21.10;99044.00;;;;5114830;28;20201;-74
2022/07/10 10:25:34;;;;;;;0.50;0.50;;;;;21.10;99047.00;;;;5114828;28;20210;-75
2022/07/10 10:28:06;;;;;;;0.50;0.50;;;;;21.00;99048.00;;;;5096630;28;20260;-75
2022/07/10 10:30:37;;;;;;;1.27;1.17;;;;;20.80;99049.00;;;;5114777;28;20190;-76
2022/07/10 10:33:42;;;;;;;0.40;0.40;;;;;20.30;99040.00;;;;5096735;28;20240;-75
2022/07/10 10:36:12;;;;;;;0.50;0.50;;;;;20.60;99036.00;;;;5114723;28;20272;-76
2022/07/10 10:39:03;;;;;;;0.40;0.40;;;;;20.30;99030.00;;;;5114353;28;20259;-75
2022/07/10 10:41:36;;;;;;;0.60;0.60;;;;;20.40;99025.00;;;;5085716;28;20518;-75
2022/07/10 10:44:35;;;;;;;0.50;0.50;;;;;20.30;99024.00;;;;5114433;28;20222;-75
2022/07/10 10:47:09;;;;;;;0.60;0.60;;;;;20.40;99031.00;;;;5114449;28;20193;-76
2022/07/10 10:49:59;;;;;;;0.60;0.60;;;;;20.00;99021.00;;;;5114376;28;20239;-76
2022/07/10 10:52:27;;;;;;;0.70;0.70;;;;;20.00;99019.00;;;;5096589;28;20274;-75
2022/07/10 10:55:07;;;;;;;0.93;0.70;;;;;20.60;99027.00;;;;5114344;28;20218;-75
2022/07/10 10:57:52;;;;;;;0.40;0.40;;;;;20.40;99024.00;;;;5114631;28;20185;-75
2022/07/10 11:00:40;;;;;;;0.40;0.40;;;;;20.60;99038.00;;;;5114199;28;20241;-75
2022/07/10 11:03:19;;;;;;;0.50;0.50;;;;;20.70;99029.00;;;;5114398;28;20557;-76
2022/07/10 11:05:48;;;;;;;0.40;0.40;;;;;21.00;99019.00;;;;5114224;28;20326;-76
2022/07/10 11:08:40;;;;;;;0.40;0.40;;;;;21.60;99020.00;;;;5114512;28;20560;-76
2022/07/10 11:11:37;;;;;;;0.87;0.87;;;;;21.80;99027.00;;;;5114220;28;20255;-75
2022/07/10 11:14:04;;;;;;;0.40;0.40;;;;;21.40;99043.00;;;;5114341;28;20228;-75
2022/07/10 11:16:32;;;;;;;0.50;0.50;;;;;20.90;99035.00;;;;5114161;28;20208;-75
2022/07/10 11:19:00;;;;;;;1.67;0.77;;;;;21.20;99033.00;;;;5113961;28;20196;-75
2022/07/10 11:21:33;;;;;;;0.40;0.40;;;;;21.20;99034.00;;;;5114625;28;20194;-75
2022/07/10 11:24:06;;;;;;;0.40;0.40;;;;;21.30;99023.00;;;;5114088;28;20715;-75
2022/07/10 11:26:40;;;;;;;0.47;0.47;;;;;21.80;99020.00;;;;5114135;28;20200;-75
2022/07/10 11:29:07;;;;;;;0.40;0.40;;;;;22.20;99033.00;;;;5095972;28;20224;-75
2022/07/10 11:31:40;;;;;;;1.50;0.97;;;;;22.20;99031.00;;;;5113889;28;20201;-75
2022/07/10 11:34:10;;;;;;;0.53;0.53;;;;;21.90;99015.00;;;;5113718;28;20222;-75
2022/07/10 11:36:39;;;;;;;0.60;0.60;;;;;21.80;99024.00;;;;5113720;28;20213;-78
2022/07/10 11:39:08;;;;;;;0.50;0.50;;;;;22.20;99017.00;;;;5115774;28;20218;-75
2022/07/10 11:41:42;;;;;;;1.00;0.82;;;;;22.80;99018.00;;;;5117291;28;20198;-75
2022/07/10 11:44:15;;;;;;;0.40;0.40;;;;;22.40;99013.00;;;;5117647;28;20222;-75
2022/07/10 11:46:44;;;;;;;0.40;0.40;;;;;22.50;99007.00;;;;5117192;28;20270;-75
2022/07/10 11:49:14;;;;;;;0.40;0.40;;;;;22.70;99012.00;;;;5117383;28;20190;-75
2022/07/10 11:51:42;;;;;;;1.10;1.10;;;;;22.90;99004.00;;;;5117259;28;20555;-75
2022/07/10 11:54:12;;;;;;;0.55;0.55;;;;;22.90;99008.00;;;;5117317;28;20221;-75
2022/07/10 11:56:41;;;;;;;0.50;0.50;;;;;22.90;99008.00;;;;5099526;28;20234;-75
2022/07/10 11:59:09;;;;;;;0.47;0.47;;;;;23.40;99004.00;;;;5099252;28;20266;-75
2022/07/10 12:01:42;;;;;;;0.70;0.65;;;;;23.70;99020.00;;;;5117160;28;20235;-75
2022/07/10 12:04:13;;;;;;;0.40;0.40;;;;;23.30;98999.00;;;;5099299;28;20228;-76
2022/07/10 12:06:44;;;;;;;0.43;0.43;;;;;23.30;99017.00;;;;5099010;28;20206;-76
2022/07/10 12:09:15;;;;;;;0.60;0.60;;;;;23.30;99009.00;;;;5099243;28;20289;-76
2022/07/10 12:11:43;;;;;;;0.43;0.43;;;;;23.60;99008.00;;;;5116940;28;20202;-76
2022/07/10 12:14:14;;;;;;;0.60;0.60;;;;;23.90;99014.00;;;;5116789;28;20237;-75
2022/07/10 12:16:42;;;;;;;0.70;0.70;;;;;23.60;99005.00;;;;5117190;28;20529;-76
2022/07/10 12:19:14;;;;;;;0.60;0.60;;;;;23.90;99006.00;;;;5116833;28;20217;-75
2022/07/10 12:21:44;;;;;;;0.50;0.50;;;;;24.50;98997.00;;;;5116837;28;20284;-75
2022/07/10 12:24:13;;;;;;;0.40;0.40;;;;;24.60;99008.00;;;;5116934;28;20221;-76
2022/07/10 12:26:43;;;;;;;0.60;0.60;;;;;24.90;99005.00;;;;5116959;28;20213;-75
2022/07/10 12:29:19;;;;;;;0.40;0.40;;;;;24.50;99005.00;;;;5116774;28;20246;-76
2022/07/10 12:31:48;;;;;;;0.43;0.43;;;;;24.80;99008.00;;;;5098714;28;20304;-76
2022/07/10 12:34:15;;;;;;;0.40;0.40;;;;;24.60;99005.00;;;;5116725;28;20217;-75